sensor_id;sensor_type;location;lat;lon;timestamp;P1;durP1;ratioP1;P2;durP2;ratioP2
31298;SDS011;17927;52.350;13.402;2023-05-29T00:02:22;11.23;;;3.70;;
31298;SDS011;17927;52.350;13.402;2023-05-29T00:04:47;8.35;;;3.92;;
31298;SDS011;17927;52.350;13.402;2023-05-29T00:07:13;7.78;;;3.72;;
31298;SDS011;17927;52.350;13.402;2023-05-29T00:09:38;7.13;;;3.60;;
31298;SDS011;17927;52.350;13.402;2023-05-29T00:12:03;7.53;;;4.03;;
31298;SDS011;17927;52.350;13.402;2023-05-29T00:14:30;5.93;;;3.38;;
31298;SDS011;17927;52.350;13.402;2023-05-29T00:16:55;5.35;;;4.00;;
31298;SDS011;17927;52.350;13.402;2023-05-29T00:19:21;7.10;;;3.67;;
31298;SDS011;17927;52.350;13.402;2023-05-29T00:21:47;7.25;;;3.92;;
31298;SDS011;17927;52.350;13.402;2023-05-29T00:24:13;8.23;;;3.97;;
31298;SDS011;17927;52.350;13.402;2023-05-29T00:26:39;7.38;;;3.72;;
31298;SDS011;17927;52.350;13.402;2023-05-29T00:29:05;8.40;;;4.25;;
31298;SDS011;17927;52.350;13.402;2023-05-29T00:31:30;8.30;;;3.85;;
31298;SDS011;17927;52.350;13.402;2023-05-29T00:33:55;10.02;;;3.33;;
31298;SDS011;17927;52.350;13.402;2023-05-29T00:36:21;10.13;;;4.20;;
31298;SDS011;17927;52.350;13.402;2023-05-29T00:38:46;10.10;;;3.50;;
31298;SDS011;17927;52.350;13.402;2023-05-29T00:41:14;7.18;;;3.67;;
31298;SDS011;17927;52.350;13.402;2023-05-29T00:43:40;6.28;;;4.38;;
31298;SDS011;17927;52.350;13.402;2023-05-29T00:46:06;6.13;;;3.58;;
31298;SDS011;17927;52.350;13.402;2023-05-29T00:48:32;10.25;;;3.88;;
31298;SDS011;17927;52.350;13.402;2023-05-29T00:50:57;8.90;;;3.75;;
31298;SDS011;17927;52.350;13.402;2023-05-29T00:53:23;5.70;;;3.80;;
31298;SDS011;17927;52.350;13.402;2023-05-29T00:55:49;6.90;;;3.47;;
31298;SDS011;17927;52.350;13.402;2023-05-29T00:58:15;7.07;;;3.58;;
31298;SDS011;17927;52.350;13.402;2023-05-29T01:00:41;5.63;;;3.75;;
31298;SDS011;17927;52.350;13.402;2023-05-29T01:03:07;8.77;;;3.53;;
31298;SDS011;17927;52.350;13.402;2023-05-29T01:05:34;7.15;;;4.07;;
31298;SDS011;17927;52.350;13.402;2023-05-29T01:08:00;13.55;;;5.18;;
31298;SDS011;17927;52.350;13.402;2023-05-29T01:10:27;5.75;;;3.30;;
31298;SDS011;17927;52.350;13.402;2023-05-29T01:12:57;12.90;;;4.13;;
31298;SDS011;17927;52.350;13.402;2023-05-29T01:15:36;8.23;;;3.75;;
31298;SDS011;17927;52.350;13.402;2023-05-29T01:18:30;5.88;;;3.88;;
31298;SDS011;17927;52.350;13.402;2023-05-29T01:29:02;6.38;;;3.00;;
31298;SDS011;17927;52.350;13.402;2023-05-29T01:31:31;6.38;;;3.90;;
31298;SDS011;17927;52.350;13.402;2023-05-29T01:33:59;7.60;;;3.63;;
31298;SDS011;17927;52.350;13.402;2023-05-29T01:36:25;6.63;;;3.58;;
31298;SDS011;17927;52.350;13.402;2023-05-29T01:38:51;11.88;;;4.13;;
31298;SDS011;17927;52.350;13.402;2023-05-29T01:41:19;10.55;;;5.82;;
31298;SDS011;17927;52.350;13.402;2023-05-29T01:43:46;5.90;;;3.40;;
31298;SDS011;17927;52.350;13.402;2023-05-29T01:46:13;5.68;;;2.97;;
31298;SDS011;17927;52.350;13.402;2023-05-29T01:48:40;8.93;;;3.58;;
31298;SDS011;17927;52.350;13.402;2023-05-29T01:51:06;6.53;;;3.58;;
31298;SDS011;17927;52.350;13.402;2023-05-29T01:53:32;9.93;;;4.50;;
31298;SDS011;17927;52.350;13.402;2023-05-29T01:55:57;6.35;;;3.78;;
31298;SDS011;17927;52.350;13.402;2023-05-29T01:58:22;6.57;;;3.97;;
31298;SDS011;17927;52.350;13.402;2023-05-29T02:00:48;10.93;;;4.18;;
31298;SDS011;17927;52.350;13.402;2023-05-29T02:03:13;7.10;;;3.60;;
31298;SDS011;17927;52.350;13.402;2023-05-29T02:05:38;7.07;;;3.85;;
31298;SDS011;17927;52.350;13.402;2023-05-29T02:08:04;9.85;;;3.90;;
31298;SDS011;17927;52.350;13.402;2023-05-29T02:10:29;6.40;;;3.63;;
31298;SDS011;17927;52.350;13.402;2023-05-29T02:12:56;8.10;;;3.40;;
31298;SDS011;17927;52.350;13.402;2023-05-29T02:15:22;5.40;;;3.55;;
31298;SDS011;17927;52.350;13.402;2023-05-29T02:17:47;6.32;;;3.33;;
31298;SDS011;17927;52.350;13.402;2023-05-29T02:20:12;7.43;;;3.72;;
31298;SDS011;17927;52.350;13.402;2023-05-29T02:22:38;4.32;;;3.17;;
31298;SDS011;17927;52.350;13.402;2023-05-29T02:25:03;9.38;;;3.90;;
31298;SDS011;17927;52.350;13.402;2023-05-29T02:27:28;7.15;;;3.95;;
31298;SDS011;17927;52.350;13.402;2023-05-29T02:29:54;4.20;;;3.35;;
31298;SDS011;17927;52.350;13.402;2023-05-29T02:32:19;8.63;;;3.42;;
31298;SDS011;17927;52.350;13.402;2023-05-29T02:34:44;6.07;;;4.03;;
31298;SDS011;17927;52.350;13.402;2023-05-29T02:37:10;7.00;;;3.53;;
31298;SDS011;17927;52.350;13.402;2023-05-29T02:39:35;7.03;;;3.60;;
31298;SDS011;17927;52.350;13.402;2023-05-29T02:42:00;5.55;;;3.10;;
31298;SDS011;17927;52.350;13.402;2023-05-29T02:44:26;5.57;;;3.33;;
31298;SDS011;17927;52.350;13.402;2023-05-29T02:46:51;8.93;;;3.90;;
31298;SDS011;17927;52.350;13.402;2023-05-29T02:49:16;6.05;;;2.88;;
31298;SDS011;17927;52.350;13.402;2023-05-29T02:51:41;8.30;;;3.35;;
31298;SDS011;17927;52.350;13.402;2023-05-29T02:54:07;3.88;;;2.88;;
31298;SDS011;17927;52.350;13.402;2023-05-29T02:56:32;5.63;;;3.28;;
31298;SDS011;17927;52.350;13.402;2023-05-29T02:58:57;6.40;;;3.60;;
31298;SDS011;17927;52.350;13.402;2023-05-29T03:01:23;7.20;;;3.28;;
31298;SDS011;17927;52.350;13.402;2023-05-29T03:03:48;9.10;;;3.08;;
31298;SDS011;17927;52.350;13.402;2023-05-29T03:06:13;7.20;;;3.08;;
31298;SDS011;17927;52.350;13.402;2023-05-29T03:08:38;5.18;;;3.38;;
31298;SDS011;17927;52.350;13.402;2023-05-29T03:11:06;6.72;;;3.20;;
31298;SDS011;17927;52.350;13.402;2023-05-29T03:13:33;8.35;;;3.55;;
31298;SDS011;17927;52.350;13.402;2023-05-29T03:15:59;5.75;;;2.92;;
31298;SDS011;17927;52.350;13.402;2023-05-29T03:18:24;5.15;;;2.95;;
31298;SDS011;17927;52.350;13.402;2023-05-29T03:20:50;7.75;;;3.08;;
31298;SDS011;17927;52.350;13.402;2023-05-29T03:23:15;6.38;;;3.20;;
31298;SDS011;17927;52.350;13.402;2023-05-29T03:25:40;5.50;;;2.90;;
31298;SDS011;17927;52.350;13.402;2023-05-29T03:28:05;9.02;;;3.10;;
31298;SDS011;17927;52.350;13.402;2023-05-29T03:30:31;7.63;;;3.15;;
31298;SDS011;17927;52.350;13.402;2023-05-29T03:32:56;6.53;;;2.97;;
31298;SDS011;17927;52.350;13.402;2023-05-29T03:35:21;8.02;;;2.92;;
31298;SDS011;17927;52.350;13.402;2023-05-29T03:37:46;10.15;;;3.35;;
31298;SDS011;17927;52.350;13.402;2023-05-29T03:40:12;4.68;;;3.03;;
31298;SDS011;17927;52.350;13.402;2023-05-29T03:42:37;6.38;;;3.20;;
31298;SDS011;17927;52.350;13.402;2023-05-29T03:45:03;10.05;;;3.15;;
31298;SDS011;17927;52.350;13.402;2023-05-29T03:47:28;6.72;;;2.85;;
31298;SDS011;17927;52.350;13.402;2023-05-29T03:49:53;3.28;;;2.63;;
31298;SDS011;17927;52.350;13.402;2023-05-29T03:52:19;5.60;;;3.20;;
31298;SDS011;17927;52.350;13.402;2023-05-29T03:54:44;9.45;;;3.33;;
31298;SDS011;17927;52.350;13.402;2023-05-29T03:57:09;11.55;;;3.95;;
31298;SDS011;17927;52.350;13.402;2023-05-29T03:59:35;7.60;;;3.33;;
31298;SDS011;17927;52.350;13.402;2023-05-29T04:02:00;6.88;;;3.15;;
31298;SDS011;17927;52.350;13.402;2023-05-29T04:04:25;4.70;;;3.15;;
31298;SDS011;17927;52.350;13.402;2023-05-29T04:06:51;7.70;;;3.40;;
31298;SDS011;17927;52.350;13.402;2023-05-29T04:09:17;8.73;;;3.45;;
31298;SDS011;17927;52.350;13.402;2023-05-29T04:11:42;5.05;;;3.00;;
31298;SDS011;17927;52.350;13.402;2023-05-29T04:14:09;4.20;;;2.92;;
31298;SDS011;17927;52.350;13.402;2023-05-29T04:16:34;4.88;;;2.83;;
31298;SDS011;17927;52.350;13.402;2023-05-29T04:19:00;5.13;;;2.90;;
31298;SDS011;17927;52.350;13.402;2023-05-29T04:21:25;5.78;;;3.42;;
31298;SDS011;17927;52.350;13.402;2023-05-29T04:23:50;5.05;;;3.20;;
31298;SDS011;17927;52.350;13.402;2023-05-29T04:26:16;4.38;;;3.00;;
31298;SDS011;17927;52.350;13.402;2023-05-29T04:28:42;5.15;;;3.38;;
31298;SDS011;17927;52.350;13.402;2023-05-29T04:31:08;6.55;;;4.85;;
31298;SDS011;17927;52.350;13.402;2023-05-29T04:33:39;18.00;;;8.10;;
31298;SDS011;17927;52.350;13.402;2023-05-29T04:36:05;14.25;;;8.32;;
31298;SDS011;17927;52.350;13.402;2023-05-29T04:38:30;7.85;;;5.47;;
31298;SDS011;17927;52.350;13.402;2023-05-29T04:40:56;7.03;;;4.57;;
31298;SDS011;17927;52.350;13.402;2023-05-29T04:43:23;5.32;;;4.22;;
31298;SDS011;17927;52.350;13.402;2023-05-29T04:45:51;9.25;;;4.47;;
31298;SDS011;17927;52.350;13.402;2023-05-29T04:48:17;7.30;;;4.20;;
31298;SDS011;17927;52.350;13.402;2023-05-29T04:50:42;8.77;;;4.03;;
31298;SDS011;17927;52.350;13.402;2023-05-29T04:53:09;8.25;;;4.47;;
31298;SDS011;17927;52.350;13.402;2023-05-29T04:55:35;4.57;;;3.45;;
31298;SDS011;17927;52.350;13.402;2023-05-29T04:58:00;10.50;;;3.42;;
31298;SDS011;17927;52.350;13.402;2023-05-29T05:00:26;7.05;;;3.20;;
31298;SDS011;17927;52.350;13.402;2023-05-29T05:02:51;3.75;;;2.53;;
31298;SDS011;17927;52.350;13.402;2023-05-29T05:05:17;6.32;;;3.60;;
31298;SDS011;17927;52.350;13.402;2023-05-29T05:07:42;3.72;;;2.40;;
31298;SDS011;17927;52.350;13.402;2023-05-29T05:10:07;4.05;;;2.90;;
31298;SDS011;17927;52.350;13.402;2023-05-29T05:12:33;3.30;;;2.63;;
31298;SDS011;17927;52.350;13.402;2023-05-29T05:14:59;3.83;;;2.70;;
31298;SDS011;17927;52.350;13.402;2023-05-29T05:17:24;3.75;;;2.35;;
31298;SDS011;17927;52.350;13.402;2023-05-29T05:19:49;6.00;;;2.80;;
31298;SDS011;17927;52.350;13.402;2023-05-29T05:22:15;5.22;;;2.60;;
31298;SDS011;17927;52.350;13.402;2023-05-29T05:24:41;6.85;;;3.55;;
31298;SDS011;17927;52.350;13.402;2023-05-29T05:27:07;5.25;;;2.65;;
31298;SDS011;17927;52.350;13.402;2023-05-29T05:29:32;4.13;;;2.60;;
31298;SDS011;17927;52.350;13.402;2023-05-29T05:31:57;4.68;;;2.40;;
31298;SDS011;17927;52.350;13.402;2023-05-29T05:34:22;6.25;;;2.70;;
31298;SDS011;17927;52.350;13.402;2023-05-29T05:36:48;6.40;;;2.65;;
31298;SDS011;17927;52.350;13.402;2023-05-29T05:39:14;4.40;;;2.30;;
31298;SDS011;17927;52.350;13.402;2023-05-29T05:41:39;2.90;;;2.42;;
31298;SDS011;17927;52.350;13.402;2023-05-29T05:44:05;2.33;;;2.13;;
31298;SDS011;17927;52.350;13.402;2023-05-29T05:46:30;3.75;;;2.70;;
31298;SDS011;17927;52.350;13.402;2023-05-29T05:48:55;3.30;;;2.30;;
31298;SDS011;17927;52.350;13.402;2023-05-29T05:51:25;2.38;;;1.90;;
31298;SDS011;17927;52.350;13.402;2023-05-29T05:53:51;2.88;;;1.92;;
31298;SDS011;17927;52.350;13.402;2023-05-29T05:56:16;4.65;;;2.42;;
31298;SDS011;17927;52.350;13.402;2023-05-29T05:58:42;4.57;;;2.10;;
31298;SDS011;17927;52.350;13.402;2023-05-29T06:01:07;2.33;;;1.88;;
31298;SDS011;17927;52.350;13.402;2023-05-29T06:03:33;2.38;;;1.98;;
31298;SDS011;17927;52.350;13.402;2023-05-29T06:05:59;3.20;;;1.90;;
31298;SDS011;17927;52.350;13.402;2023-05-29T06:08:24;1.98;;;1.77;;
31298;SDS011;17927;52.350;13.402;2023-05-29T06:10:50;3.20;;;2.03;;
31298;SDS011;17927;52.350;13.402;2023-05-29T06:13:15;1.90;;;1.60;;
31298;SDS011;17927;52.350;13.402;2023-05-29T06:15:42;2.47;;;1.80;;
31298;SDS011;17927;52.350;13.402;2023-05-29T06:18:07;1.77;;;1.65;;
31298;SDS011;17927;52.350;13.402;2023-05-29T06:20:32;1.90;;;1.80;;
31298;SDS011;17927;52.350;13.402;2023-05-29T06:22:58;4.40;;;2.00;;
31298;SDS011;17927;52.350;13.402;2023-05-29T06:25:23;2.13;;;1.35;;
31298;SDS011;17927;52.350;13.402;2023-05-29T06:27:57;2.72;;;1.85;;
31298;SDS011;17927;52.350;13.402;2023-05-29T06:30:22;3.05;;;1.60;;
31298;SDS011;17927;52.350;13.402;2023-05-29T06:32:47;1.65;;;1.55;;
31298;SDS011;17927;52.350;13.402;2023-05-29T06:35:12;2.88;;;1.30;;
31298;SDS011;17927;52.350;13.402;2023-05-29T06:37:38;4.28;;;1.80;;
31298;SDS011;17927;52.350;13.402;2023-05-29T06:40:03;4.05;;;2.35;;
31298;SDS011;17927;52.350;13.402;2023-05-29T06:42:29;3.90;;;2.38;;
31298;SDS011;17927;52.350;13.402;2023-05-29T06:44:55;2.75;;;2.50;;
31298;SDS011;17927;52.350;13.402;2023-05-29T06:47:20;2.10;;;1.90;;
31298;SDS011;17927;52.350;13.402;2023-05-29T06:49:45;2.63;;;1.65;;
31298;SDS011;17927;52.350;13.402;2023-05-29T06:52:11;3.13;;;1.75;;
31298;SDS011;17927;52.350;13.402;2023-05-29T06:54:36;2.00;;;1.65;;
31298;SDS011;17927;52.350;13.402;2023-05-29T06:57:01;4.80;;;3.10;;
31298;SDS011;17927;52.350;13.402;2023-05-29T06:59:26;4.18;;;3.05;;
31298;SDS011;17927;52.350;13.402;2023-05-29T07:01:52;1.63;;;1.52;;
31298;SDS011;17927;52.350;13.402;2023-05-29T07:04:17;2.35;;;1.73;;
31298;SDS011;17927;52.350;13.402;2023-05-29T07:06:42;3.17;;;2.97;;
31298;SDS011;17927;52.350;13.402;2023-05-29T07:09:07;2.28;;;2.05;;
31298;SDS011;17927;52.350;13.402;2023-05-29T07:11:33;2.47;;;1.80;;
31298;SDS011;17927;52.350;13.402;2023-05-29T07:13:58;1.80;;;1.70;;
31298;SDS011;17927;52.350;13.402;2023-05-29T07:16:23;4.15;;;1.83;;
31298;SDS011;17927;52.350;13.402;2023-05-29T07:18:48;2.28;;;1.92;;
31298;SDS011;17927;52.350;13.402;2023-05-29T07:21:14;2.20;;;1.60;;
31298;SDS011;17927;52.350;13.402;2023-05-29T07:23:39;2.03;;;1.83;;
31298;SDS011;17927;52.350;13.402;2023-05-29T07:26:05;7.15;;;3.60;;
31298;SDS011;17927;52.350;13.402;2023-05-29T07:28:30;2.00;;;1.80;;
31298;SDS011;17927;52.350;13.402;2023-05-29T07:30:56;4.63;;;2.33;;
31298;SDS011;17927;52.350;13.402;2023-05-29T07:33:21;1.95;;;1.75;;
31298;SDS011;17927;52.350;13.402;2023-05-29T07:35:47;2.33;;;1.50;;
31298;SDS011;17927;52.350;13.402;2023-05-29T07:38:12;2.50;;;1.38;;
31298;SDS011;17927;52.350;13.402;2023-05-29T07:40:38;1.95;;;1.63;;
31298;SDS011;17927;52.350;13.402;2023-05-29T07:43:03;2.13;;;1.58;;
31298;SDS011;17927;52.350;13.402;2023-05-29T07:45:28;2.45;;;2.25;;
31298;SDS011;17927;52.350;13.402;2023-05-29T07:47:53;2.13;;;1.60;;
31298;SDS011;17927;52.350;13.402;2023-05-29T07:50:19;2.00;;;1.52;;
31298;SDS011;17927;52.350;13.402;2023-05-29T07:52:44;4.78;;;3.08;;
31298;SDS011;17927;52.350;13.402;2023-05-29T07:55:10;2.28;;;1.75;;
31298;SDS011;17927;52.350;13.402;2023-05-29T07:57:35;2.00;;;1.77;;
31298;SDS011;17927;52.350;13.402;2023-05-29T08:00:00;3.55;;;1.52;;
31298;SDS011;17927;52.350;13.402;2023-05-29T08:02:30;2.97;;;2.30;;
31298;SDS011;17927;52.350;13.402;2023-05-29T08:04:56;3.15;;;2.35;;
31298;SDS011;17927;52.350;13.402;2023-05-29T08:07:21;2.22;;;1.92;;
31298;SDS011;17927;52.350;13.402;2023-05-29T08:09:46;2.60;;;2.28;;
31298;SDS011;17927;52.350;13.402;2023-05-29T08:12:12;2.15;;;1.67;;
31298;SDS011;17927;52.350;13.402;2023-05-29T08:14:37;2.13;;;1.67;;
31298;SDS011;17927;52.350;13.402;2023-05-29T08:17:02;4.00;;;2.25;;
31298;SDS011;17927;52.350;13.402;2023-05-29T08:19:27;5.65;;;2.03;;
31298;SDS011;17927;52.350;13.402;2023-05-29T08:21:53;2.55;;;1.90;;
31298;SDS011;17927;52.350;13.402;2023-05-29T08:24:18;3.10;;;2.58;;
31298;SDS011;17927;52.350;13.402;2023-05-29T08:26:45;4.20;;;1.90;;
31298;SDS011;17927;52.350;13.402;2023-05-29T08:29:10;2.47;;;1.88;;
31298;SDS011;17927;52.350;13.402;2023-05-29T08:31:35;4.18;;;2.78;;
31298;SDS011;17927;52.350;13.402;2023-05-29T08:34:01;2.72;;;2.40;;
31298;SDS011;17927;52.350;13.402;2023-05-29T08:36:26;7.32;;;2.58;;
31298;SDS011;17927;52.350;13.402;2023-05-29T08:38:52;2.85;;;2.65;;
31298;SDS011;17927;52.350;13.402;2023-05-29T08:41:25;2.78;;;2.15;;
31298;SDS011;17927;52.350;13.402;2023-05-29T08:43:56;3.70;;;1.98;;
31298;SDS011;17927;52.350;13.402;2023-05-29T08:46:26;4.03;;;2.33;;
31298;SDS011;17927;52.350;13.402;2023-05-29T08:48:52;2.42;;;1.80;;
31298;SDS011;17927;52.350;13.402;2023-05-29T08:51:19;2.65;;;2.00;;
31298;SDS011;17927;52.350;13.402;2023-05-29T08:53:48;2.92;;;2.72;;
31298;SDS011;17927;52.350;13.402;2023-05-29T08:56:13;3.20;;;2.28;;
31298;SDS011;17927;52.350;13.402;2023-05-29T08:58:39;2.85;;;2.65;;
31298;SDS011;17927;52.350;13.402;2023-05-29T09:01:04;3.95;;;2.20;;
31298;SDS011;17927;52.350;13.402;2023-05-29T09:03:30;3.08;;;2.30;;
31298;SDS011;17927;52.350;13.402;2023-05-29T09:05:58;3.20;;;1.95;;
31298;SDS011;17927;52.350;13.402;2023-05-29T09:08:25;2.88;;;2.42;;
31298;SDS011;17927;52.350;13.402;2023-05-29T09:10:51;4.95;;;1.95;;
31298;SDS011;17927;52.350;13.402;2023-05-29T09:13:16;3.92;;;2.08;;
31298;SDS011;17927;52.350;13.402;2023-05-29T09:15:42;2.30;;;2.10;;
31298;SDS011;17927;52.350;13.402;2023-05-29T09:18:07;2.88;;;2.00;;
31298;SDS011;17927;52.350;13.402;2023-05-29T09:20:33;3.63;;;1.92;;
31298;SDS011;17927;52.350;13.402;2023-05-29T09:23:00;8.65;;;2.65;;
31298;SDS011;17927;52.350;13.402;2023-05-29T09:25:27;2.65;;;2.45;;
31298;SDS011;17927;52.350;13.402;2023-05-29T09:27:56;3.50;;;2.28;;
31298;SDS011;17927;52.350;13.402;2023-05-29T09:30:39;3.38;;;2.92;;
31298;SDS011;17927;52.350;13.402;2023-05-29T09:33:05;2.95;;;2.58;;
31298;SDS011;17927;52.350;13.402;2023-05-29T09:35:33;2.60;;;2.20;;
31298;SDS011;17927;52.350;13.402;2023-05-29T09:37:59;1.88;;;1.70;;
31298;SDS011;17927;52.350;13.402;2023-05-29T09:40:25;3.30;;;2.30;;
31298;SDS011;17927;52.350;13.402;2023-05-29T09:42:51;2.15;;;1.95;;
31298;SDS011;17927;52.350;13.402;2023-05-29T09:45:17;2.35;;;1.75;;
31298;SDS011;17927;52.350;13.402;2023-05-29T09:47:42;7.93;;;2.08;;
31298;SDS011;17927;52.350;13.402;2023-05-29T09:50:14;1.95;;;1.77;;
31298;SDS011;17927;52.350;13.402;2023-05-29T09:52:45;3.42;;;2.35;;
31298;SDS011;17927;52.350;13.402;2023-05-29T09:55:11;3.80;;;2.13;;
31298;SDS011;17927;52.350;13.402;2023-05-29T09:57:38;3.63;;;2.20;;
31298;SDS011;17927;52.350;13.402;2023-05-29T10:00:03;2.88;;;2.40;;
31298;SDS011;17927;52.350;13.402;2023-05-29T10:02:37;3.85;;;2.83;;
31298;SDS011;17927;52.350;13.402;2023-05-29T10:05:05;2.40;;;2.20;;
31298;SDS011;17927;52.350;13.402;2023-05-29T10:07:31;4.13;;;2.33;;
31298;SDS011;17927;52.350;13.402;2023-05-29T10:10:05;2.42;;;2.22;;
31298;SDS011;17927;52.350;13.402;2023-05-29T10:12:34;5.10;;;2.08;;
31298;SDS011;17927;52.350;13.402;2023-05-29T10:15:05;3.58;;;2.63;;
31298;SDS011;17927;52.350;13.402;2023-05-29T10:17:36;3.60;;;2.50;;
31298;SDS011;17927;52.350;13.402;2023-05-29T10:20:05;3.85;;;2.45;;
31298;SDS011;17927;52.350;13.402;2023-05-29T10:22:34;3.22;;;2.30;;
31298;SDS011;17927;52.350;13.402;2023-05-29T10:25:05;2.85;;;2.15;;
31298;SDS011;17927;52.350;13.402;2023-05-29T10:27:33;3.30;;;2.35;;
31298;SDS011;17927;52.350;13.402;2023-05-29T10:30:00;2.95;;;2.58;;
31298;SDS011;17927;52.350;13.402;2023-05-29T10:32:32;3.22;;;2.65;;
31298;SDS011;17927;52.350;13.402;2023-05-29T10:40:15;4.85;;;2.95;;
31298;SDS011;17927;52.350;13.402;2023-05-29T10:42:48;2.55;;;2.35;;
31298;SDS011;17927;52.350;13.402;2023-05-29T10:48:40;3.58;;;2.97;;
31298;SDS011;17927;52.350;13.402;2023-05-29T10:50:53;2.63;;;2.30;;
31298;SDS011;17927;52.350;13.402;2023-05-29T10:53:23;2.53;;;1.88;;
31298;SDS011;17927;52.350;13.402;2023-05-29T10:55:49;4.33;;;2.97;;
31298;SDS011;17927;52.350;13.402;2023-05-29T10:58:19;5.80;;;2.40;;
31298;SDS011;17927;52.350;13.402;2023-05-29T11:00:46;2.47;;;2.20;;
31298;SDS011;17927;52.350;13.402;2023-05-29T11:03:17;3.58;;;2.40;;
31298;SDS011;17927;52.350;13.402;2023-05-29T11:08:41;4.65;;;2.25;;
31298;SDS011;17927;52.350;13.402;2023-05-29T11:13:52;2.53;;;2.22;;
31298;SDS011;17927;52.350;13.402;2023-05-29T11:18:56;3.00;;;2.30;;
31298;SDS011;17927;52.350;13.402;2023-05-29T11:23:54;7.13;;;2.55;;
31298;SDS011;17927;52.350;13.402;2023-05-29T11:26:20;3.63;;;2.75;;
31298;SDS011;17927;52.350;13.402;2023-05-29T11:28:47;4.22;;;2.70;;
31298;SDS011;17927;52.350;13.402;2023-05-29T11:31:13;3.20;;;2.15;;
31298;SDS011;17927;52.350;13.402;2023-05-29T11:33:40;2.50;;;2.30;;
31298;SDS011;17927;52.350;13.402;2023-05-29T11:36:09;2.10;;;1.98;;
31298;SDS011;17927;52.350;13.402;2023-05-29T11:38:35;4.70;;;2.75;;
31298;SDS011;17927;52.350;13.402;2023-05-29T11:41:01;4.00;;;2.15;;
31298;SDS011;17927;52.350;13.402;2023-05-29T11:43:27;2.47;;;2.25;;
31298;SDS011;17927;52.350;13.402;2023-05-29T11:45:52;1.98;;;1.88;;
31298;SDS011;17927;52.350;13.402;2023-05-29T11:48:17;1.95;;;1.85;;
31298;SDS011;17927;52.350;13.402;2023-05-29T11:50:43;2.83;;;2.45;;
31298;SDS011;17927;52.350;13.402;2023-05-29T11:53:11;9.38;;;3.28;;
31298;SDS011;17927;52.350;13.402;2023-05-29T11:55:36;2.40;;;1.80;;
31298;SDS011;17927;52.350;13.402;2023-05-29T11:58:02;2.70;;;2.05;;
31298;SDS011;17927;52.350;13.402;2023-05-29T12:00:32;2.22;;;2.00;;
31298;SDS011;17927;52.350;13.402;2023-05-29T12:02:59;4.07;;;1.90;;
31298;SDS011;17927;52.350;13.402;2023-05-29T12:05:29;1.80;;;1.70;;
31298;SDS011;17927;52.350;13.402;2023-05-29T12:07:56;1.85;;;1.70;;
31298;SDS011;17927;52.350;13.402;2023-05-29T12:10:21;2.55;;;1.92;;
31298;SDS011;17927;52.350;13.402;2023-05-29T12:12:51;3.78;;;1.77;;
31298;SDS011;17927;52.350;13.402;2023-05-29T12:15:18;1.70;;;1.60;;
31298;SDS011;17927;52.350;13.402;2023-05-29T12:17:46;1.90;;;1.75;;
31298;SDS011;17927;52.350;13.402;2023-05-29T12:20:12;2.65;;;1.90;;
31298;SDS011;17927;52.350;13.402;2023-05-29T12:22:39;2.72;;;2.53;;
31298;SDS011;17927;52.350;13.402;2023-05-29T12:25:11;1.73;;;1.63;;
31298;SDS011;17927;52.350;13.402;2023-05-29T12:27:46;2.63;;;2.03;;
31298;SDS011;17927;52.350;13.402;2023-05-29T12:32:42;1.88;;;1.70;;
31298;SDS011;17927;52.350;13.402;2023-05-29T12:35:18;1.75;;;1.65;;
31298;SDS011;17927;52.350;13.402;2023-05-29T12:37:49;3.42;;;1.80;;
31298;SDS011;17927;52.350;13.402;2023-05-29T12:40:20;2.15;;;2.00;;
31298;SDS011;17927;52.350;13.402;2023-05-29T12:42:46;3.92;;;1.77;;
31298;SDS011;17927;52.350;13.402;2023-05-29T12:45:13;2.05;;;1.83;;
31298;SDS011;17927;52.350;13.402;2023-05-29T12:47:46;3.03;;;1.58;;
31298;SDS011;17927;52.350;13.402;2023-05-29T12:55:22;2.03;;;1.48;;
31298;SDS011;17927;52.350;13.402;2023-05-29T12:57:47;1.77;;;1.65;;
31298;SDS011;17927;52.350;13.402;2023-05-29T13:00:13;4.13;;;1.75;;
31298;SDS011;17927;52.350;13.402;2023-05-29T13:02:38;1.92;;;1.52;;
31298;SDS011;17927;52.350;13.402;2023-05-29T13:05:04;1.90;;;1.63;;
31298;SDS011;17927;52.350;13.402;2023-05-29T13:07:30;2.33;;;1.90;;
31298;SDS011;17927;52.350;13.402;2023-05-29T13:09:56;2.15;;;1.63;;
31298;SDS011;17927;52.350;13.402;2023-05-29T13:12:21;2.67;;;2.22;;
31298;SDS011;17927;52.350;13.402;2023-05-29T13:14:47;2.10;;;1.90;;
31298;SDS011;17927;52.350;13.402;2023-05-29T13:17:12;1.63;;;1.53;;
31298;SDS011;17927;52.350;13.402;2023-05-29T13:19:37;1.95;;;1.77;;
31298;SDS011;17927;52.350;13.402;2023-05-29T13:22:02;3.80;;;1.70;;
31298;SDS011;17927;52.350;13.402;2023-05-29T13:24:28;2.88;;;2.25;;
31298;SDS011;17927;52.350;13.402;2023-05-29T13:26:53;2.30;;;2.20;;
31298;SDS011;17927;52.350;13.402;2023-05-29T13:29:18;2.23;;;1.77;;
31298;SDS011;17927;52.350;13.402;2023-05-29T13:31:44;4.88;;;2.10;;
31298;SDS011;17927;52.350;13.402;2023-05-29T13:34:09;1.83;;;1.63;;
31298;SDS011;17927;52.350;13.402;2023-05-29T13:36:35;6.88;;;2.72;;
31298;SDS011;17927;52.350;13.402;2023-05-29T13:39:01;2.55;;;1.90;;
31298;SDS011;17927;52.350;13.402;2023-05-29T13:41:26;2.20;;;1.58;;
31298;SDS011;17927;52.350;13.402;2023-05-29T13:43:51;2.35;;;1.75;;
31298;SDS011;17927;52.350;13.402;2023-05-29T13:46:16;2.57;;;1.70;;
31298;SDS011;17927;52.350;13.402;2023-05-29T13:48:42;2.22;;;1.67;;
31298;SDS011;17927;52.350;13.402;2023-05-29T13:51:08;2.30;;;1.73;;
31298;SDS011;17927;52.350;13.402;2023-05-29T13:53:33;4.20;;;1.73;;
31298;SDS011;17927;52.350;13.402;2023-05-29T13:55:58;2.75;;;1.95;;
31298;SDS011;17927;52.350;13.402;2023-05-29T13:58:23;2.73;;;1.90;;
31298;SDS011;17927;52.350;13.402;2023-05-29T14:00:49;3.13;;;1.80;;
31298;SDS011;17927;52.350;13.402;2023-05-29T14:03:14;3.17;;;1.63;;
31298;SDS011;17927;52.350;13.402;2023-05-29T14:05:39;6.35;;;1.40;;
31298;SDS011;17927;52.350;13.402;2023-05-29T14:08:04;2.20;;;1.98;;
31298;SDS011;17927;52.350;13.402;2023-05-29T14:10:30;1.47;;;1.37;;
31298;SDS011;17927;52.350;13.402;2023-05-29T14:12:55;2.00;;;1.90;;
31298;SDS011;17927;52.350;13.402;2023-05-29T14:15:20;2.03;;;1.83;;
31298;SDS011;17927;52.350;13.402;2023-05-29T14:17:45;2.00;;;1.60;;
31298;SDS011;17927;52.350;13.402;2023-05-29T14:20:11;1.93;;;1.73;;
31298;SDS011;17927;52.350;13.402;2023-05-29T14:22:36;2.07;;;1.87;;
31298;SDS011;17927;52.350;13.402;2023-05-29T14:25:02;3.05;;;2.20;;
31298;SDS011;17927;52.350;13.402;2023-05-29T14:27:29;3.60;;;1.83;;
31298;SDS011;17927;52.350;13.402;2023-05-29T14:29:54;3.83;;;1.80;;
31298;SDS011;17927;52.350;13.402;2023-05-29T14:32:20;2.47;;;1.77;;
31298;SDS011;17927;52.350;13.402;2023-05-29T14:34:45;2.25;;;2.00;;
31298;SDS011;17927;52.350;13.402;2023-05-29T14:37:11;3.15;;;1.67;;
31298;SDS011;17927;52.350;13.402;2023-05-29T14:39:36;2.08;;;1.48;;
31298;SDS011;17927;52.350;13.402;2023-05-29T14:42:01;3.30;;;1.73;;
31298;SDS011;17927;52.350;13.402;2023-05-29T14:44:27;2.67;;;1.50;;
31298;SDS011;17927;52.350;13.402;2023-05-29T14:46:52;2.50;;;1.53;;
31298;SDS011;17927;52.350;13.402;2023-05-29T14:49:17;5.23;;;2.00;;
31298;SDS011;17927;52.350;13.402;2023-05-29T14:51:44;2.40;;;1.55;;
31298;SDS011;17927;52.350;13.402;2023-05-29T14:54:09;2.03;;;1.60;;
31298;SDS011;17927;52.350;13.402;2023-05-29T14:56:36;2.40;;;1.88;;
31298;SDS011;17927;52.350;13.402;2023-05-29T14:59:02;3.05;;;1.65;;
31298;SDS011;17927;52.350;13.402;2023-05-29T15:01:27;2.97;;;1.73;;
31298;SDS011;17927;52.350;13.402;2023-05-29T15:03:52;2.57;;;1.87;;